sensor_id;sensor_type;location;lat;lon;timestamp;pressure;altitude;pressure_sealevel;temperature;humidity
75656;BME280;64252;51.094;13.714;2023-06-22T00:01:12;100629.88;;;21.13;nan
75656;BME280;64252;51.094;13.714;2023-06-22T00:03:37;100640.91;;;21.15;nan
75656;BME280;64252;51.094;13.714;2023-06-22T00:06:03;100643.78;;;21.15;nan
75656;BME280;64252;51.094;13.714;2023-06-22T00:08:28;100647.97;;;21.10;nan
75656;BME280;64252;51.094;13.714;2023-06-22T00:10:54;100642.91;;;21.01;nan
75656;BME280;64252;51.094;13.714;2023-06-22T00:13:19;100646.34;;;20.96;nan
75656;BME280;64252;51.094;13.714;2023-06-22T00:15:45;100648.94;;;20.91;nan
75656;BME280;64252;51.094;13.714;2023-06-22T00:18:11;100653.09;;;20.90;nan
75656;BME280;64252;51.094;13.714;2023-06-22T00:20:38;100656.41;;;20.88;nan
75656;BME280;64252;51.094;13.714;2023-06-22T00:23:06;100648.25;;;20.87;nan
75656;BME280;64252;51.094;13.714;2023-06-22T00:25:40;100657.88;;;20.80;nan
75656;BME280;64252;51.094;13.714;2023-06-22T00:28:06;100663.25;;;20.78;nan
75656;BME280;64252;51.094;13.714;2023-06-22T00:30:34;100665.06;;;20.72;nan
75656;BME280;64252;51.094;13.714;2023-06-22T00:33:00;100674.22;;;20.67;nan
75656;BME280;64252;51.094;13.714;2023-06-22T00:35:26;100663.81;;;20.73;nan
75656;BME280;64252;51.094;13.714;2023-06-22T00:37:58;100669.81;;;20.79;nan
75656;BME280;64252;51.094;13.714;2023-06-22T00:40:29;100671.44;;;20.80;nan
75656;BME280;64252;51.094;13.714;2023-06-22T00:42:57;100682.28;;;20.72;nan
75656;BME280;64252;51.094;13.714;2023-06-22T00:45:23;100675.03;;;20.68;nan
75656;BME280;64252;51.094;13.714;2023-06-22T00:47:53;100670.84;;;20.56;nan
75656;BME280;64252;51.094;13.714;2023-06-22T00:50:24;100668.53;;;20.51;nan
75656;BME280;64252;51.094;13.714;2023-06-22T00:52:55;100668.88;;;20.53;nan
75656;BME280;64252;51.094;13.714;2023-06-22T00:55:22;100666.38;;;20.55;nan
75656;BME280;64252;51.094;13.714;2023-06-22T00:57:48;100662.25;;;20.56;nan
75656;BME280;64252;51.094;13.714;2023-06-22T01:00:17;100660.63;;;20.55;nan
75656;BME280;64252;51.094;13.714;2023-06-22T01:02:45;100666.56;;;20.48;nan
75656;BME280;64252;51.094;13.714;2023-06-22T01:05:14;100659.31;;;20.43;nan
75656;BME280;64252;51.094;13.714;2023-06-22T01:13:54;100667.00;;;20.46;nan
75656;BME280;64252;51.094;13.714;2023-06-22T01:16:29;100664.25;;;20.43;nan
75656;BME280;64252;51.094;13.714;2023-06-22T01:18:57;100656.50;;;20.40;nan
75656;BME280;64252;51.094;13.714;2023-06-22T01:21:29;100662.63;;;20.42;nan
75656;BME280;64252;51.094;13.714;2023-06-22T01:27:00;100656.03;;;20.25;nan
75656;BME280;64252;51.094;13.714;2023-06-22T01:29:32;100658.84;;;20.29;nan
75656;BME280;64252;51.094;13.714;2023-06-22T01:31:59;100653.91;;;20.29;nan
75656;BME280;64252;51.094;13.714;2023-06-22T01:34:29;100653.19;;;20.25;nan
75656;BME280;64252;51.094;13.714;2023-06-22T01:36:56;100651.84;;;20.13;nan
75656;BME280;64252;51.094;13.714;2023-06-22T01:39:25;100648.81;;;20.04;nan
75656;BME280;64252;51.094;13.714;2023-06-22T01:41:53;100650.44;;;20.05;nan
75656;BME280;64252;51.094;13.714;2023-06-22T01:44:19;100653.63;;;20.07;nan
75656;BME280;64252;51.094;13.714;2023-06-22T01:46:48;100662.44;;;20.00;nan
75656;BME280;64252;51.094;13.714;2023-06-22T01:49:15;100658.03;;;19.96;nan
75656;BME280;64252;51.094;13.714;2023-06-22T01:51:40;100651.50;;;19.95;nan
75656;BME280;64252;51.094;13.714;2023-06-22T01:54:06;100660.00;;;19.99;nan
75656;BME280;64252;51.094;13.714;2023-06-22T01:56:33;100654.72;;;19.97;nan
75656;BME280;64252;51.094;13.714;2023-06-22T01:59:07;100652.22;;;19.99;nan
75656;BME280;64252;51.094;13.714;2023-06-22T02:01:54;100658.75;;;20.00;nan
75656;BME280;64252;51.094;13.714;2023-06-22T02:04:27;100660.44;;;19.97;nan
75656;BME280;64252;51.094;13.714;2023-06-22T02:06:58;100655.41;;;20.01;nan
75656;BME280;64252;51.094;13.714;2023-06-22T02:09:27;100649.78;;;19.98;nan
75656;BME280;64252;51.094;13.714;2023-06-22T02:11:55;100651.84;;;19.97;nan
75656;BME280;64252;51.094;13.714;2023-06-22T02:14:23;100650.69;;;19.95;nan
75656;BME280;64252;51.094;13.714;2023-06-22T02:16:51;100648.06;;;19.84;nan
75656;BME280;64252;51.094;13.714;2023-06-22T02:19:17;100645.94;;;19.88;nan
75656;BME280;64252;51.094;13.714;2023-06-22T02:21:45;100640.19;;;19.88;nan
75656;BME280;64252;51.094;13.714;2023-06-22T02:24:12;100643.97;;;19.85;nan
75656;BME280;64252;51.094;13.714;2023-06-22T02:26:38;100650.84;;;19.88;nan
75656;BME280;64252;51.094;13.714;2023-06-22T02:29:05;100655.00;;;19.87;nan
75656;BME280;64252;51.094;13.714;2023-06-22T02:31:30;100651.75;;;19.85;nan
75656;BME280;64252;51.094;13.714;2023-06-22T02:33:59;100649.31;;;19.83;nan
75656;BME280;64252;51.094;13.714;2023-06-22T02:36:26;100650.22;;;19.80;nan
75656;BME280;64252;51.094;13.714;2023-06-22T02:38:57;100654.34;;;19.79;nan
75656;BME280;64252;51.094;13.714;2023-06-22T02:41:24;100652.72;;;19.78;nan
75656;BME280;64252;51.094;13.714;2023-06-22T02:43:49;100656.50;;;19.75;nan
75656;BME280;64252;51.094;13.714;2023-06-22T02:46:18;100660.25;;;19.72;nan
75656;BME280;64252;51.094;13.714;2023-06-22T02:48:44;100674.22;;;19.70;nan
75656;BME280;64252;51.094;13.714;2023-06-22T02:51:09;100675.97;;;19.64;nan
75656;BME280;64252;51.094;13.714;2023-06-22T02:53:36;100682.97;;;19.63;nan
75656;BME280;64252;51.094;13.714;2023-06-22T02:56:02;100677.31;;;19.59;nan
75656;BME280;64252;51.094;13.714;2023-06-22T02:58:34;100671.31;;;19.54;nan
75656;BME280;64252;51.094;13.714;2023-06-22T03:01:07;100679.44;;;19.91;nan
75656;BME280;64252;51.094;13.714;2023-06-22T03:03:34;100663.66;;;19.67;nan
75656;BME280;64252;51.094;13.714;2023-06-22T03:05:59;100669.28;;;19.70;nan
75656;BME280;64252;51.094;13.714;2023-06-22T03:08:28;100669.09;;;19.78;nan
75656;BME280;64252;51.094;13.714;2023-06-22T03:10:55;100676.91;;;19.77;nan
75656;BME280;64252;51.094;13.714;2023-06-22T03:13:21;100674.59;;;19.88;nan
75656;BME280;64252;51.094;13.714;2023-06-22T03:15:47;100679.59;;;19.84;nan
75656;BME280;64252;51.094;13.714;2023-06-22T03:18:12;100662.59;;;19.93;nan
75656;BME280;64252;51.094;13.714;2023-06-22T03:20:38;100652.22;;;19.99;nan
75656;BME280;64252;51.094;13.714;2023-06-22T03:23:04;100650.50;;;20.02;nan
75656;BME280;64252;51.094;13.714;2023-06-22T03:25:31;100640.22;;;20.04;nan
75656;BME280;64252;51.094;13.714;2023-06-22T03:28:00;100639.56;;;20.13;nan
75656;BME280;64252;51.094;13.714;2023-06-22T03:30:26;100631.97;;;20.23;nan
75656;BME280;64252;51.094;13.714;2023-06-22T03:32:52;100629.81;;;20.27;nan
75656;BME280;64252;51.094;13.714;2023-06-22T03:35:17;100631.75;;;20.30;nan
75656;BME280;64252;51.094;13.714;2023-06-22T03:37:43;100646.28;;;20.39;nan
75656;BME280;64252;51.094;13.714;2023-06-22T03:40:09;100646.94;;;20.46;nan
75656;BME280;64252;51.094;13.714;2023-06-22T03:42:35;100636.53;;;20.36;nan
75656;BME280;64252;51.094;13.714;2023-06-22T03:45:04;100628.63;;;20.56;nan
75656;BME280;64252;51.094;13.714;2023-06-22T03:47:29;100630.94;;;20.62;nan
75656;BME280;64252;51.094;13.714;2023-06-22T03:49:57;100647.84;;;20.43;nan
75656;BME280;64252;51.094;13.714;2023-06-22T03:52:22;100649.16;;;20.55;nan
75656;BME280;64252;51.094;13.714;2023-06-22T03:54:48;100639.31;;;20.40;nan
75656;BME280;64252;51.094;13.714;2023-06-22T03:57:14;100636.69;;;20.62;nan
75656;BME280;64252;51.094;13.714;2023-06-22T03:59:39;100645.34;;;20.74;nan
75656;BME280;64252;51.094;13.714;2023-06-22T04:02:05;100645.84;;;20.85;nan
75656;BME280;64252;51.094;13.714;2023-06-22T04:04:31;100649.44;;;20.89;nan
75656;BME280;64252;51.094;13.714;2023-06-22T04:06:56;100648.16;;;20.90;nan
75656;BME280;64252;51.094;13.714;2023-06-22T04:09:22;100646.16;;;21.03;nan
75656;BME280;64252;51.094;13.714;2023-06-22T04:11:47;100651.66;;;21.11;nan
75656;BME280;64252;51.094;13.714;2023-06-22T04:14:13;100662.44;;;21.07;nan
75656;BME280;64252;51.094;13.714;2023-06-22T04:16:38;100676.97;;;21.16;nan
75656;BME280;64252;51.094;13.714;2023-06-22T04:19:04;100675.88;;;21.26;nan
75656;BME280;64252;51.094;13.714;2023-06-22T04:21:29;100671.63;;;21.30;nan
75656;BME280;64252;51.094;13.714;2023-06-22T04:23:55;100662.31;;;21.39;nan
75656;BME280;64252;51.094;13.714;2023-06-22T04:26:20;100663.72;;;21.47;nan
75656;BME280;64252;51.094;13.714;2023-06-22T04:28:47;100656.94;;;21.41;nan
75656;BME280;64252;51.094;13.714;2023-06-22T04:31:17;100652.00;;;21.54;nan
75656;BME280;64252;51.094;13.714;2023-06-22T04:33:44;100657.19;;;21.59;nan
75656;BME280;64252;51.094;13.714;2023-06-22T04:36:10;100659.75;;;21.70;nan
75656;BME280;64252;51.094;13.714;2023-06-22T04:38:39;100670.22;;;21.89;nan
75656;BME280;64252;51.094;13.714;2023-06-22T04:41:04;100676.66;;;22.06;nan
75656;BME280;64252;51.094;13.714;2023-06-22T04:43:30;100682.97;;;22.13;nan
75656;BME280;64252;51.094;13.714;2023-06-22T04:45:57;100683.78;;;22.14;nan
75656;BME280;64252;51.094;13.714;2023-06-22T04:48:31;100695.47;;;22.57;nan
75656;BME280;64252;51.094;13.714;2023-06-22T04:51:01;100706.28;;;22.79;nan
75656;BME280;64252;51.094;13.714;2023-06-22T04:53:30;100700.41;;;23.04;nan
75656;BME280;64252;51.094;13.714;2023-06-22T04:55:56;100704.81;;;22.96;nan
75656;BME280;64252;51.094;13.714;2023-06-22T04:58:22;100706.16;;;23.04;nan
75656;BME280;64252;51.094;13.714;2023-06-22T05:00:47;100721.06;;;23.24;nan
75656;BME280;64252;51.094;13.714;2023-06-22T05:03:13;100719.59;;;23.63;nan
75656;BME280;64252;51.094;13.714;2023-06-22T05:05:38;100727.66;;;25.06;nan
75656;BME280;64252;51.094;13.714;2023-06-22T05:08:04;100720.25;;;26.77;nan
75656;BME280;64252;51.094;13.714;2023-06-22T05:10:33;100723.88;;;28.36;nan
75656;BME280;64252;51.094;13.714;2023-06-22T05:12:58;100737.84;;;29.48;nan
75656;BME280;64252;51.094;13.714;2023-06-22T05:15:24;100742.53;;;30.91;nan
75656;BME280;64252;51.094;13.714;2023-06-22T05:17:53;100748.72;;;31.75;nan
75656;BME280;64252;51.094;13.714;2023-06-22T05:20:19;100748.72;;;31.75;nan
75656;BME280;64252;51.094;13.714;2023-06-22T05:22:44;100746.88;;;32.61;nan
75656;BME280;64252;51.094;13.714;2023-06-22T05:25:11;100749.56;;;32.48;nan
75656;BME280;64252;51.094;13.714;2023-06-22T05:27:37;100739.09;;;33.60;nan
75656;BME280;64252;51.094;13.714;2023-06-22T05:30:07;100745.22;;;33.04;nan
75656;BME280;64252;51.094;13.714;2023-06-22T05:32:32;100747.94;;;33.49;nan
75656;BME280;64252;51.094;13.714;2023-06-22T05:34:59;100743.88;;;33.69;nan
75656;BME280;64252;51.094;13.714;2023-06-22T05:37:24;100732.63;;;34.98;nan
75656;BME280;64252;51.094;13.714;2023-06-22T05:39:51;100724.72;;;34.63;nan
75656;BME280;64252;51.094;13.714;2023-06-22T05:42:17;100715.81;;;33.38;nan
75656;BME280;64252;51.094;13.714;2023-06-22T05:44:42;100714.03;;;33.24;nan
75656;BME280;64252;51.094;13.714;2023-06-22T05:47:08;100713.53;;;34.37;nan
75656;BME280;64252;51.094;13.714;2023-06-22T05:49:33;100726.00;;;35.16;nan
75656;BME280;64252;51.094;13.714;2023-06-22T05:51:59;100732.47;;;35.52;nan
75656;BME280;64252;51.094;13.714;2023-06-22T05:54:27;100725.09;;;33.88;nan
75656;BME280;64252;51.094;13.714;2023-06-22T05:56:53;100725.25;;;34.61;nan
75656;BME280;64252;51.094;13.714;2023-06-22T05:59:19;100713.97;;;34.11;nan
75656;BME280;64252;51.094;13.714;2023-06-22T06:01:44;100713.63;;;34.26;nan
75656;BME280;64252;51.094;13.714;2023-06-22T06:04:11;100708.81;;;35.26;nan
75656;BME280;64252;51.094;13.714;2023-06-22T06:06:36;100705.38;;;32.90;nan
75656;BME280;64252;51.094;13.714;2023-06-22T06:09:03;100708.41;;;34.08;nan
75656;BME280;64252;51.094;13.714;2023-06-22T06:11:29;100704.69;;;34.67;nan
75656;BME280;64252;51.094;13.714;2023-06-22T06:13:55;100699.09;;;35.12;nan
75656;BME280;64252;51.094;13.714;2023-06-22T06:16:22;100693.84;;;35.61;nan
75656;BME280;64252;51.094;13.714;2023-06-22T06:18:47;100695.06;;;35.34;nan
75656;BME280;64252;51.094;13.714;2023-06-22T06:21:15;100678.19;;;34.97;nan
75656;BME280;64252;51.094;13.714;2023-06-22T06:23:40;100675.69;;;35.62;nan
75656;BME280;64252;51.094;13.714;2023-06-22T06:26:06;100659.81;;;37.01;nan
75656;BME280;64252;51.094;13.714;2023-06-22T06:28:32;100629.31;;;34.32;nan
75656;BME280;64252;51.094;13.714;2023-06-22T06:30:58;100593.09;;;32.13;nan
75656;BME280;64252;51.094;13.714;2023-06-22T06:33:24;100605.97;;;30.90;nan
75656;BME280;64252;51.094;13.714;2023-06-22T06:35:49;100622.50;;;30.08;nan
75656;BME280;64252;51.094;13.714;2023-06-22T06:38:15;100619.75;;;29.67;nan
75656;BME280;64252;51.094;13.714;2023-06-22T06:40:41;100612.06;;;29.13;nan
75656;BME280;64252;51.094;13.714;2023-06-22T06:43:06;100615.81;;;28.93;nan
75656;BME280;64252;51.094;13.714;2023-06-22T06:45:32;100620.66;;;29.02;nan
75656;BME280;64252;51.094;13.714;2023-06-22T06:48:00;100613.25;;;29.01;nan
75656;BME280;64252;51.094;13.714;2023-06-22T06:50:25;100605.34;;;29.27;nan
75656;BME280;64252;51.094;13.714;2023-06-22T06:52:51;100596.09;;;29.03;nan
75656;BME280;64252;51.094;13.714;2023-06-22T06:55:17;100600.84;;;29.26;nan
75656;BME280;64252;51.094;13.714;2023-06-22T06:57:44;100602.00;;;29.34;nan
75656;BME280;64252;51.094;13.714;2023-06-22T07:00:14;100604.63;;;29.95;nan
75656;BME280;64252;51.094;13.714;2023-06-22T07:02:42;100599.19;;;32.04;nan
75656;BME280;64252;51.094;13.714;2023-06-22T07:05:09;100604.31;;;33.71;nan
75656;BME280;64252;51.094;13.714;2023-06-22T07:07:35;100603.69;;;35.37;nan
75656;BME280;64252;51.094;13.714;2023-06-22T07:10:00;100613.69;;;36.11;nan
75656;BME280;64252;51.094;13.714;2023-06-22T07:12:26;100622.19;;;36.15;nan
75656;BME280;64252;51.094;13.714;2023-06-22T07:14:52;100622.03;;;36.07;nan
75656;BME280;64252;51.094;13.714;2023-06-22T07:17:19;100624.53;;;35.52;nan
75656;BME280;64252;51.094;13.714;2023-06-22T07:19:45;100616.63;;;36.11;nan
75656;BME280;64252;51.094;13.714;2023-06-22T07:22:10;100617.00;;;35.89;nan
75656;BME280;64252;51.094;13.714;2023-06-22T07:24:36;100607.53;;;35.96;nan
75656;BME280;64252;51.094;13.714;2023-06-22T07:27:03;100611.06;;;36.07;nan
75656;BME280;64252;51.094;13.714;2023-06-22T07:29:29;100608.56;;;35.98;nan
75656;BME280;64252;51.094;13.714;2023-06-22T07:31:54;100622.22;;;35.83;nan
75656;BME280;64252;51.094;13.714;2023-06-22T07:34:22;100611.94;;;36.34;nan
75656;BME280;64252;51.094;13.714;2023-06-22T07:36:47;100610.59;;;36.03;nan
75656;BME280;64252;51.094;13.714;2023-06-22T07:39:13;100614.19;;;35.83;nan
75656;BME280;64252;51.094;13.714;2023-06-22T07:41:40;100616.13;;;34.87;nan
75656;BME280;64252;51.094;13.714;2023-06-22T07:44:06;100609.25;;;34.60;nan
75656;BME280;64252;51.094;13.714;2023-06-22T07:46:32;100610.97;;;34.50;nan
75656;BME280;64252;51.094;13.714;2023-06-22T07:48:58;100611.63;;;34.13;nan
75656;BME280;64252;51.094;13.714;2023-06-22T07:51:25;100607.88;;;34.86;nan
75656;BME280;64252;51.094;13.714;2023-06-22T07:53:50;100614.84;;;35.57;nan
75656;BME280;64252;51.094;13.714;2023-06-22T07:56:16;100614.84;;;35.76;nan
75656;BME280;64252;51.094;13.714;2023-06-22T07:58:46;100610.53;;;35.08;nan
75656;BME280;64252;51.094;13.714;2023-06-22T08:01:15;100617.16;;;34.90;nan
75656;BME280;64252;51.094;13.714;2023-06-22T08:03:42;100611.00;;;35.49;nan
75656;BME280;64252;51.094;13.714;2023-06-22T08:06:08;100615.38;;;35.24;nan
75656;BME280;64252;51.094;13.714;2023-06-22T08:08:35;100605.59;;;35.16;nan
75656;BME280;64252;51.094;13.714;2023-06-22T08:11:01;100597.44;;;34.23;nan
75656;BME280;64252;51.094;13.714;2023-06-22T08:13:26;100598.81;;;34.16;nan
75656;BME280;64252;51.094;13.714;2023-06-22T08:15:52;100598.56;;;33.19;nan
75656;BME280;64252;51.094;13.714;2023-06-22T08:18:17;100606.97;;;33.69;nan
75656;BME280;64252;51.094;13.714;2023-06-22T08:20:43;100600.69;;;33.54;nan
75656;BME280;64252;51.094;13.714;2023-06-22T08:23:08;100594.81;;;33.54;nan
75656;BME280;64252;51.094;13.714;2023-06-22T08:25:35;100585.91;;;32.94;nan
75656;BME280;64252;51.094;13.714;2023-06-22T08:28:03;100591.13;;;33.07;nan
75656;BME280;64252;51.094;13.714;2023-06-22T08:30:29;100590.88;;;33.51;nan
75656;BME280;64252;51.094;13.714;2023-06-22T08:32:55;100587.88;;;33.22;nan
75656;BME280;64252;51.094;13.714;2023-06-22T08:35:23;100586.50;;;33.93;nan
75656;BME280;64252;51.094;13.714;2023-06-22T08:37:49;100584.78;;;33.44;nan
75656;BME280;64252;51.094;13.714;2023-06-22T08:40:19;100574.81;;;33.58;nan
75656;BME280;64252;51.094;13.714;2023-06-22T08:42:45;100570.88;;;33.85;nan
75656;BME280;64252;51.094;13.714;2023-06-22T08:45:12;100578.97;;;33.74;nan
75656;BME280;64252;51.094;13.714;2023-06-22T08:47:38;100579.13;;;33.10;nan
75656;BME280;64252;51.094;13.714;2023-06-22T08:50:05;100574.47;;;33.37;nan
75656;BME280;64252;51.094;13.714;2023-06-22T08:52:31;100571.63;;;34.16;nan
75656;BME280;64252;51.094;13.714;2023-06-22T08:54:57;100579.06;;;34.22;nan
75656;BME280;64252;51.094;13.714;2023-06-22T08:57:26;100576.47;;;34.13;nan
75656;BME280;64252;51.094;13.714;2023-06-22T08:59:52;100563.56;;;33.98;nan
75656;BME280;64252;51.094;13.714;2023-06-22T09:02:18;100575.28;;;33.98;nan
75656;BME280;64252;51.094;13.714;2023-06-22T09:04:46;100567.94;;;34.10;nan
75656;BME280;64252;51.094;13.714;2023-06-22T09:07:12;100568.00;;;34.53;nan
75656;BME280;64252;51.094;13.714;2023-06-22T09:09:37;100553.81;;;34.14;nan
75656;BME280;64252;51.094;13.714;2023-06-22T09:12:03;100555.94;;;34.56;nan
75656;BME280;64252;51.094;13.714;2023-06-22T09:14:29;100560.25;;;34.55;nan
75656;BME280;64252;51.094;13.714;2023-06-22T09:16:54;100556.91;;;34.46;nan
75656;BME280;64252;51.094;13.714;2023-06-22T09:19:20;100564.16;;;33.90;nan
75656;BME280;64252;51.094;13.714;2023-06-22T09:21:46;100551.44;;;34.79;nan
75656;BME280;64252;51.094;13.714;2023-06-22T09:24:11;100549.75;;;34.84;nan
75656;BME280;64252;51.094;13.714;2023-06-22T09:26:37;100558.63;;;34.78;nan
75656;BME280;64252;51.094;13.714;2023-06-22T09:29:05;100547.09;;;34.99;nan
75656;BME280;64252;51.094;13.714;2023-06-22T09:31:31;100542.22;;;35.26;nan
75656;BME280;64252;51.094;13.714;2023-06-22T09:33:56;100542.03;;;35.00;nan
75656;BME280;64252;51.094;13.714;2023-06-22T09:36:22;100535.69;;;34.96;nan
75656;BME280;64252;51.094;13.714;2023-06-22T09:38:48;100530.53;;;35.02;nan
75656;BME280;64252;51.094;13.714;2023-06-22T09:41:14;100527.34;;;35.00;nan
75656;BME280;64252;51.094;13.714;2023-06-22T09:43:39;100523.50;;;35.42;nan
75656;BME280;64252;51.094;13.714;2023-06-22T09:46:05;100535.22;;;34.92;nan
75656;BME280;64252;51.094;13.714;2023-06-22T09:48:32;100539.25;;;35.26;nan
75656;BME280;64252;51.094;13.714;2023-06-22T09:50:58;100526.31;;;35.16;nan
75656;BME280;64252;51.094;13.714;2023-06-22T09:53:23;100527.75;;;35.28;nan
75656;BME280;64252;51.094;13.714;2023-06-22T09:55:48;100521.28;;;34.79;nan
75656;BME280;64252;51.094;13.714;2023-06-22T09:58:14;100529.47;;;34.43;nan
75656;BME280;64252;51.094;13.714;2023-06-22T10:00:40;100531.44;;;33.86;nan
75656;BME280;64252;51.094;13.714;2023-06-22T10:03:07;100520.41;;;34.22;nan
75656;BME280;64252;51.094;13.714;2023-06-22T10:05:32;100523.75;;;33.24;nan
75656;BME280;64252;51.094;13.714;2023-06-22T10:07:58;100508.28;;;33.29;nan
75656;BME280;64252;51.094;13.714;2023-06-22T10:10:24;100514.22;;;33.47;nan
75656;BME280;64252;51.094;13.714;2023-06-22T10:12:57;100510.69;;;34.09;nan
75656;BME280;64252;51.094;13.714;2023-06-22T10:15:23;100507.00;;;34.03;nan
75656;BME280;64252;51.094;13.714;2023-06-22T10:17:48;100509.31;;;33.61;nan
75656;BME280;64252;51.094;13.714;2023-06-22T10:20:14;100508.06;;;32.80;nan
75656;BME280;64252;51.094;13.714;2023-06-22T10:22:44;100495.38;;;32.61;nan
75656;BME280;64252;51.094;13.714;2023-06-22T10:25:11;100504.88;;;32.78;nan
75656;BME280;64252;51.094;13.714;2023-06-22T10:27:37;100498.22;;;32.78;nan
75656;BME280;64252;51.094;13.714;2023-06-22T10:30:11;100511.66;;;32.97;nan
75656;BME280;64252;51.094;13.714;2023-06-22T10:32:41;100505.88;;;33.57;nan
75656;BME280;64252;51.094;13.714;2023-06-22T10:35:07;100493.28;;;32.97;nan
75656;BME280;64252;51.094;13.714;2023-06-22T10:37:33;100491.31;;;33.10;nan
75656;BME280;64252;51.094;13.714;2023-06-22T10:39:59;100486.00;;;33.44;nan
75656;BME280;64252;51.094;13.714;2023-06-22T10:42:24;100477.16;;;33.80;nan
75656;BME280;64252;51.094;13.714;2023-06-22T10:44:50;100478.75;;;33.81;nan
75656;BME280;64252;51.094;13.714;2023-06-22T10:47:16;100476.97;;;33.97;nan
75656;BME280;64252;51.094;13.714;2023-06-22T10:49:41;100471.81;;;33.84;nan
75656;BME280;64252;51.094;13.714;2023-06-22T10:52:08;100471.47;;;33.87;nan
75656;BME280;64252;51.094;13.714;2023-06-22T10:54:35;100472.84;;;34.29;nan
75656;BME280;64252;51.094;13.714;2023-06-22T10:57:04;100466.94;;;33.38;nan
75656;BME280;64252;51.094;13.714;2023-06-22T10:59:30;100475.38;;;33.12;nan
75656;BME280;64252;51.094;13.714;2023-06-22T11:01:56;100466.44;;;32.98;nan
75656;BME280;64252;51.094;13.714;2023-06-22T11:04:22;100460.66;;;33.23;nan
75656;BME280;64252;51.094;13.714;2023-06-22T11:06:48;100459.03;;;33.57;nan
75656;BME280;64252;51.094;13.714;2023-06-22T11:09:15;100471.31;;;33.20;nan
75656;BME280;64252;51.094;13.714;2023-06-22T11:11:47;100458.50;;;33.53;nan
75656;BME280;64252;51.094;13.714;2023-06-22T11:14:13;100453.06;;;33.68;nan
75656;BME280;64252;51.094;13.714;2023-06-22T11:16:38;100453.59;;;33.91;nan
75656;BME280;64252;51.094;13.714;2023-06-22T11:19:05;100454.19;;;34.32;nan
75656;BME280;64252;51.094;13.714;2023-06-22T11:21:30;100456.00;;;34.54;nan
75656;BME280;64252;51.094;13.714;2023-06-22T11:23:57;100446.75;;;34.69;nan
75656;BME280;64252;51.094;13.714;2023-06-22T11:26:22;100442.47;;;34.70;nan
75656;BME280;64252;51.094;13.714;2023-06-22T11:28:48;100442.84;;;35.56;nan
75656;BME280;64252;51.094;13.714;2023-06-22T11:31:14;100447.03;;;35.16;nan
75656;BME280;64252;51.094;13.714;2023-06-22T11:33:40;100430.50;;;35.00;nan
75656;BME280;64252;51.094;13.714;2023-06-22T11:36:05;100429.09;;;34.88;nan
75656;BME280;64252;51.094;13.714;2023-06-22T11:38:31;100428.63;;;34.84;nan
75656;BME280;64252;51.094;13.714;2023-06-22T11:41:00;100426.63;;;35.23;nan
75656;BME280;64252;51.094;13.714;2023-06-22T11:43:25;100425.84;;;35.23;nan
75656;BME280;64252;51.094;13.714;2023-06-22T11:45:51;100422.94;;;34.72;nan
75656;BME280;64252;51.094;13.714;2023-06-22T11:48:17;100420.56;;;34.71;nan
75656;BME280;64252;51.094;13.714;2023-06-22T11:50:42;100426.50;;;33.85;nan
75656;BME280;64252;51.094;13.714;2023-06-22T11:53:08;100407.56;;;34.29;nan
75656;BME280;64252;51.094;13.714;2023-06-22T11:55:34;100410.56;;;34.23;nan
75656;BME280;64252;51.094;13.714;2023-06-22T11:57:59;100412.47;;;34.58;nan
75656;BME280;64252;51.094;13.714;2023-06-22T12:00:29;100407.47;;;34.34;nan
75656;BME280;64252;51.094;13.714;2023-06-22T12:02:55;100400.88;;;34.28;nan
75656;BME280;64252;51.094;13.714;2023-06-22T12:05:21;100396.88;;;33.88;nan
75656;BME280;64252;51.094;13.714;2023-06-22T12:07:48;100397.31;;;34.17;nan
75656;BME280;64252;51.094;13.714;2023-06-22T12:10:14;100387.78;;;34.11;nan
75656;BME280;64252;51.094;13.714;2023-06-22T12:12:40;100386.78;;;34.46;nan
75656;BME280;64252;51.094;13.714;2023-06-22T12:15:06;100380.44;;;34.60;nan
75656;BME280;64252;51.094;13.714;2023-06-22T12:17:34;100378.94;;;34.35;nan
75656;BME280;64252;51.094;13.714;2023-06-22T12:19:59;100379.88;;;34.43;nan
75656;BME280;64252;51.094;13.714;2023-06-22T12:22:25;100379.22;;;34.18;nan
75656;BME280;64252;51.094;13.714;2023-06-22T12:24:50;100375.16;;;33.78;nan
75656;BME280;64252;51.094;13.714;2023-06-22T12:27:17;100380.47;;;33.56;nan
75656;BME280;64252;51.094;13.714;2023-06-22T12:29:45;100374.19;;;33.94;nan
75656;BME280;64252;51.094;13.714;2023-06-22T12:32:11;100366.44;;;34.66;nan
75656;BME280;64252;51.094;13.714;2023-06-22T12:34:39;100369.13;;;34.51;nan
75656;BME280;64252;51.094;13.714;2023-06-22T12:37:05;100364.19;;;34.91;nan
75656;BME280;64252;51.094;13.714;2023-06-22T12:39:35;100355.53;;;34.67;nan
75656;BME280;64252;51.094;13.714;2023-06-22T12:42:00;100356.88;;;34.47;nan
75656;BME280;64252;51.094;13.714;2023-06-22T12:44:26;100354.94;;;33.99;nan
75656;BME280;64252;51.094;13.714;2023-06-22T12:46:52;100345.00;;;33.59;nan
75656;BME280;64252;51.094;13.714;2023-06-22T12:51:43;100345.63;;;33.76;nan
75656;BME280;64252;51.094;13.714;2023-06-22T12:54:10;100337.50;;;33.88;nan
75656;BME280;64252;51.094;13.714;2023-06-22T12:56:37;100332.69;;;34.28;nan
75656;BME280;64252;51.094;13.714;2023-06-22T12:59:04;100335.38;;;34.26;nan
75656;BME280;64252;51.094;13.714;2023-06-22T13:01:30;100331.75;;;34.52;nan
75656;BME280;64252;51.094;13.714;2023-06-22T13:03:56;100330.78;;;34.62;nan
75656;BME280;64252;51.094;13.714;2023-06-22T13:06:22;100328.78;;;34.70;nan
75656;BME280;64252;51.094;13.714;2023-06-22T13:08:47;100319.28;;;34.14;nan